Time;durP1;ratioP1;P1;durP2;ratioP2;P2;SDS_P1;SDS_P2;PMS_P1;PMS_P2;Temp;Humidity;BMP_temperature;BMP_pressure;BME280_temperature;BME280_humidity;BME280_pressure;Samples;Min_cycle;Max_cycle;Signal;HPM_P1;HPM_P2
2021/07/11 00:01:50;;;;;;;6.20;3.65;;;;;;;;;;5074106;28;20028;-61
2021/07/11 00:04:16;;;;;;;5.47;3.80;;;;;;;;;;5074356;28;20032;-61
2021/07/11 00:06:42;;;;;;;4.03;3.25;;;;;;;;;;5073945;28;20032;-61
2021/07/11 00:09:08;;;;;;;4.68;3.50;;;;;;;;;;5074195;28;20104;-61
2021/07/11 00:11:35;;;;;;;7.18;3.83;;;;;;;;;;5074058;28;20021;-61
2021/07/11 00:14:01;;;;;;;7.45;3.75;;;;;;;;;;5073951;28;20021;-61
2021/07/11 00:16:31;;;;;;;5.35;3.45;;;;;;;;;;5073520;28;20036;-61
2021/07/11 00:18:57;;;;;;;5.80;4.00;;;;;;;;;;5073888;28;20487;-61
2021/07/11 00:21:23;;;;;;;4.72;3.58;;;;;;;;;;5073860;28;20074;-61
2021/07/11 00:23:50;;;;;;;5.07;3.72;;;;;;;;;;5030672;28;1229528;-62
2021/07/11 00:26:16;;;;;;;7.78;4.57;;;;;;;;;;5074866;28;20029;-62
2021/07/11 00:28:42;;;;;;;6.70;4.50;;;;;;;;;;5075094;28;20020;-61
2021/07/11 00:31:08;;;;;;;5.15;4.15;;;;;;;;;;5075396;28;20074;-59
2021/07/11 00:33:34;;;;;;;6.03;4.20;;;;;;;;;;5078173;28;20021;-61
2021/07/11 00:36:00;;;;;;;6.00;4.28;;;;;;;;;;5074904;28;20467;-61
2021/07/11 00:38:26;;;;;;;8.90;4.82;;;;;;;;;;5059417;28;20025;-60
2021/07/11 00:40:53;;;;;;;7.07;4.47;;;;;;;;;;5058053;28;20025;-65
2021/07/11 00:43:19;;;;;;;6.30;4.43;;;;;;;;;;5057539;28;20025;-60
2021/07/11 00:45:45;;;;;;;7.00;4.55;;;;;;;;;;5056789;28;20477;-61
2021/07/11 00:48:12;;;;;;;5.55;5.05;;;;;;;;;;5055113;28;20040;-61
2021/07/11 00:50:38;;;;;;;6.03;4.95;;;;;;;;;;5074208;28;20043;-61
2021/07/11 00:53:08;;;;;;;7.15;5.13;;;;;;;;;;5076319;28;20036;-61
2021/07/11 00:55:34;;;;;;;5.72;4.55;;;;;;;;;;5074690;28;20037;-61
2021/07/11 00:58:00;;;;;;;5.55;4.55;;;;;;;;;;5077014;28;20024;-61
2021/07/11 01:00:26;;;;;;;5.97;4.43;;;;;;;;;;5075740;28;20036;-60
2021/07/11 01:03:10;;;;;;;7.35;5.38;;;;;;;;;;5078334;28;20024;-60
2021/07/11 01:05:37;;;;;;;6.57;4.38;;;;;;;;;;5074917;28;20059;-62
2021/07/11 01:08:03;;;;;;;7.05;4.30;;;;;;;;;;5073938;28;20027;-61
2021/07/11 01:10:35;;;;;;;8.85;5.00;;;;;;;;;;5073951;28;20104;-61
2021/07/11 01:13:02;;;;;;;6.53;4.63;;;;;;;;;;5073908;28;20103;-61
2021/07/11 01:15:29;;;;;;;5.65;4.30;;;;;;;;;;5073917;28;20017;-61
2021/07/11 01:17:58;;;;;;;6.53;4.63;;;;;;;;;;5073923;28;20471;-61
2021/07/11 01:20:42;;;;;;;5.95;4.65;;;;;;;;;;5061383;28;20029;-61
2021/07/11 01:23:10;;;;;;;6.60;4.20;;;;;;;;;;5057480;28;20100;-61
2021/07/11 01:25:42;;;;;;;5.55;4.05;;;;;;;;;;5073556;28;20044;-61
2021/07/11 01:28:10;;;;;;;5.10;3.60;;;;;;;;;;5072803;28;20025;-61
2021/07/11 01:30:37;;;;;;;5.10;4.00;;;;;;;;;;5055684;28;20037;-61
2021/07/11 01:33:05;;;;;;;5.28;3.70;;;;;;;;;;5073796;28;20029;-61
2021/07/11 01:35:32;;;;;;;5.20;3.92;;;;;;;;;;5073257;28;20020;-62
2021/07/11 01:37:59;;;;;;;4.18;3.60;;;;;;;;;;5061812;28;20524;-60
2021/07/11 01:40:26;;;;;;;5.05;3.70;;;;;;;;;;5059981;28;20025;-61
2021/07/11 01:42:53;;;;;;;4.32;3.80;;;;;;;;;;5073660;28;20028;-61
2021/07/11 01:45:19;;;;;;;7.70;4.75;;;;;;;;;;5073212;28;20040;-60
2021/07/11 01:47:45;;;;;;;6.32;4.05;;;;;;;;;;5073097;28;20031;-62
2021/07/11 01:50:12;;;;;;;7.30;3.92;;;;;;;;;;5073286;28;20408;-61
2021/07/11 01:52:40;;;;;;;5.25;3.40;;;;;;;;;;5073113;28;20112;-61
2021/07/11 01:55:07;;;;;;;6.13;4.05;;;;;;;;;;5073038;28;20052;-61
2021/07/11 01:57:34;;;;;;;4.80;3.50;;;;;;;;;;5073102;28;20024;-61
2021/07/11 02:00:00;;;;;;;5.25;3.50;;;;;;;;;;5073030;28;20078;-62
2021/07/11 02:02:26;;;;;;;4.30;3.47;;;;;;;;;;5072955;28;20024;-61
2021/07/11 02:04:52;;;;;;;4.85;4.05;;;;;;;;;;5072664;28;20418;-61
2021/07/11 02:07:18;;;;;;;5.63;3.25;;;;;;;;;;5072752;28;20031;-61
2021/07/11 02:09:44;;;;;;;4.85;3.40;;;;;;;;;;5072811;28;20048;-61
2021/07/11 02:12:11;;;;;;;4.20;3.38;;;;;;;;;;5072761;28;20028;-61
2021/07/11 02:14:39;;;;;;;4.78;3.72;;;;;;;;;;5072713;28;20020;-61
2021/07/11 02:17:10;;;;;;;4.35;3.72;;;;;;;;;;5072639;28;20097;-61
2021/07/11 02:19:37;;;;;;;3.22;2.92;;;;;;;;;;5066548;28;20029;-61
2021/07/11 02:22:04;;;;;;;3.53;3.20;;;;;;;;;;5052693;28;20586;-61
2021/07/11 02:24:32;;;;;;;3.42;2.92;;;;;;;;;;5052411;28;20518;-61
2021/07/11 02:26:58;;;;;;;4.07;2.90;;;;;;;;;;5048076;28;20493;-62
2021/07/11 02:29:27;;;;;;;4.57;2.90;;;;;;;;;;5072590;28;20471;-64
2021/07/11 02:31:53;;;;;;;3.45;2.72;;;;;;;;;;5072129;28;20104;-61
2021/07/11 02:34:20;;;;;;;4.15;2.95;;;;;;;;;;5072174;28;20095;-64
2021/07/11 02:36:48;;;;;;;3.30;3.00;;;;;;;;;;5070879;28;20054;-61
2021/07/11 02:39:16;;;;;;;3.28;2.88;;;;;;;;;;5067969;28;20497;-61
2021/07/11 02:41:43;;;;;;;4.18;2.67;;;;;;;;;;5072395;28;20067;-61
2021/07/11 02:44:10;;;;;;;3.63;2.80;;;;;;;;;;5072381;28;20100;-61
2021/07/11 02:46:39;;;;;;;3.97;2.90;;;;;;;;;;5072256;28;20033;-61
2021/07/11 02:49:08;;;;;;;4.93;2.90;;;;;;;;;;5072085;28;20025;-61
2021/07/11 02:51:36;;;;;;;3.60;2.85;;;;;;;;;;5072343;28;20031;-61
2021/07/11 02:54:02;;;;;;;3.95;2.60;;;;;;;;;;5072267;28;20095;-61
2021/07/11 02:56:29;;;;;;;3.60;3.10;;;;;;;;;;5054182;28;20052;-62
2021/07/11 02:58:57;;;;;;;3.03;2.67;;;;;;;;;;5072211;28;20070;-61
2021/07/11 03:01:27;;;;;;;4.32;3.08;;;;;;;;;;5072233;28;20029;-60
2021/07/11 03:03:54;;;;;;;3.35;3.00;;;;;;;;;;5072037;28;20021;-61
2021/07/11 03:06:21;;;;;;;3.25;2.85;;;;;;;;;;5071959;28;20024;-61
2021/07/11 03:08:47;;;;;;;4.75;3.53;;;;;;;;;;5072364;28;20425;-61
2021/07/11 03:11:13;;;;;;;4.28;3.55;;;;;;;;;;5072119;28;20031;-60
2021/07/11 03:13:40;;;;;;;3.80;3.15;;;;;;;;;;5072120;28;20584;-61
2021/07/11 03:16:06;;;;;;;4.68;3.42;;;;;;;;;;5072008;28;20105;-61
2021/07/11 03:18:35;;;;;;;3.70;3.30;;;;;;;;;;5071886;28;20028;-61
2021/07/11 03:21:02;;;;;;;4.15;3.28;;;;;;;;;;5071945;28;20033;-61
2021/07/11 03:23:29;;;;;;;4.47;3.40;;;;;;;;;;5071694;28;20047;-61
2021/07/11 03:25:55;;;;;;;6.70;3.45;;;;;;;;;;5071927;28;20108;-61
2021/07/11 03:28:21;;;;;;;4.28;3.50;;;;;;;;;;5071880;28;20060;-62
2021/07/11 03:30:49;;;;;;;4.13;3.00;;;;;;;;;;5072064;28;20636;-61
2021/07/11 03:33:16;;;;;;;5.30;3.40;;;;;;;;;;5071611;28;20074;-61
2021/07/11 03:35:53;;;;;;;6.00;4.30;;;;;;;;;;5071795;28;20021;-61
2021/07/11 03:38:21;;;;;;;4.78;3.40;;;;;;;;;;5057464;28;20427;-61
2021/07/11 03:40:47;;;;;;;4.70;3.40;;;;;;;;;;5069392;28;20036;-61
2021/07/11 03:43:15;;;;;;;9.77;4.10;;;;;;;;;;5071829;28;20391;-61
2021/07/11 03:45:41;;;;;;;5.22;3.60;;;;;;;;;;5071786;28;20095;-61
2021/07/11 03:48:08;;;;;;;6.97;3.88;;;;;;;;;;5071807;28;20051;-62
2021/07/11 03:50:36;;;;;;;4.22;3.47;;;;;;;;;;5072925;28;20107;-61
2021/07/11 03:53:04;;;;;;;5.55;4.38;;;;;;;;;;5057452;28;20077;-61
2021/07/11 03:55:32;;;;;;;4.60;3.40;;;;;;;;;;5075529;28;20028;-61
2021/07/11 03:57:59;;;;;;;5.90;4.47;;;;;;;;;;5075127;28;20021;-61
2021/07/11 04:00:25;;;;;;;4.63;3.83;;;;;;;;;;5075235;28;20475;-61
2021/07/11 04:02:52;;;;;;;4.32;3.45;;;;;;;;;;5075071;28;20593;-62
2021/07/11 04:05:20;;;;;;;5.55;4.00;;;;;;;;;;5075354;28;20028;-61
2021/07/11 04:07:48;;;;;;;7.57;4.30;;;;;;;;;;5075078;28;20029;-61
2021/07/11 04:10:14;;;;;;;6.47;4.30;;;;;;;;;;5075095;28;20021;-61
2021/07/11 04:12:40;;;;;;;5.55;4.03;;;;;;;;;;5074960;28;20029;-60
2021/07/11 04:15:07;;;;;;;6.50;3.78;;;;;;;;;;5075036;28;20402;-61
2021/07/11 04:17:34;;;;;;;4.97;3.67;;;;;;;;;;5074917;28;20048;-61
2021/07/11 04:20:02;;;;;;;5.88;4.10;;;;;;;;;;5065573;28;20108;-62
2021/07/11 04:22:29;;;;;;;6.95;4.05;;;;;;;;;;5054863;28;20048;-61
2021/07/11 04:24:55;;;;;;;6.75;4.90;;;;;;;;;;5054560;28;20136;-62
2021/07/11 04:27:23;;;;;;;5.53;4.13;;;;;;;;;;5054756;28;20029;-61
2021/07/11 04:29:52;;;;;;;6.00;4.65;;;;;;;;;;5055790;28;20136;-61
2021/07/11 04:32:19;;;;;;;5.10;4.32;;;;;;;;;;5074647;28;20092;-61
2021/07/11 04:34:45;;;;;;;5.75;4.32;;;;;;;;;;5074676;28;20016;-61
2021/07/11 04:37:14;;;;;;;5.70;4.00;;;;;;;;;;5069704;28;20071;-61
2021/07/11 04:39:40;;;;;;;5.07;4.18;;;;;;;;;;5054547;28;20029;-61
2021/07/11 04:42:06;;;;;;;6.40;4.07;;;;;;;;;;5054475;28;20029;-61
2021/07/11 04:44:32;;;;;;;5.38;4.10;;;;;;;;;;5054565;28;20422;-61
2021/07/11 04:46:58;;;;;;;4.70;3.88;;;;;;;;;;5056766;28;20029;-61
2021/07/11 04:49:25;;;;;;;5.18;3.55;;;;;;;;;;5074398;28;20491;-61
2021/07/11 04:51:52;;;;;;;4.82;3.83;;;;;;;;;;5074322;28;20070;-61
2021/07/11 04:54:18;;;;;;;6.47;3.67;;;;;;;;;;5074277;28;20413;-62
2021/07/11 04:56:44;;;;;;;7.75;3.85;;;;;;;;;;5074127;28;20056;-61
2021/07/11 04:59:10;;;;;;;8.05;3.80;;;;;;;;;;5074070;28;20032;-61
2021/07/11 05:01:36;;;;;;;6.05;3.85;;;;;;;;;;5073350;28;20035;-62
2021/07/11 05:04:03;;;;;;;6.25;4.03;;;;;;;;;;5073538;28;20037;-61
2021/07/11 05:06:29;;;;;;;5.75;3.78;;;;;;;;;;5073884;28;20074;-61
2021/07/11 05:08:55;;;;;;;5.35;4.28;;;;;;;;;;5074046;28;20051;-61
2021/07/11 05:11:21;;;;;;;7.05;4.38;;;;;;;;;;5074191;28;20021;-62
2021/07/11 05:13:47;;;;;;;5.05;4.13;;;;;;;;;;5073763;28;20034;-61
2021/07/11 05:16:13;;;;;;;7.63;4.40;;;;;;;;;;5073865;28;20116;-61
2021/07/11 05:18:39;;;;;;;6.32;4.15;;;;;;;;;;5073874;28;20028;-61
2021/07/11 05:21:05;;;;;;;6.72;5.00;;;;;;;;;;5059342;28;20082;-61
2021/07/11 05:23:31;;;;;;;5.57;3.78;;;;;;;;;;5073798;28;20391;-62
2021/07/11 05:25:57;;;;;;;6.53;4.20;;;;;;;;;;5073482;28;20036;-62
2021/07/11 05:28:24;;;;;;;5.70;4.15;;;;;;;;;;5073529;28;20028;-61
2021/07/11 05:30:50;;;;;;;7.13;3.85;;;;;;;;;;5073422;28;20025;-61
2021/07/11 05:33:16;;;;;;;5.97;4.55;;;;;;;;;;5073150;28;20025;-61
2021/07/11 05:35:42;;;;;;;3.72;3.33;;;;;;;;;;5073340;28;20105;-63
2021/07/11 05:38:08;;;;;;;5.75;3.80;;;;;;;;;;5062529;28;20027;-61
2021/07/11 05:40:34;;;;;;;5.00;3.85;;;;;;;;;;5073481;28;20025;-62
2021/07/11 05:43:00;;;;;;;4.78;3.85;;;;;;;;;;5073037;28;20024;-59
2021/07/11 05:45:26;;;;;;;5.22;3.55;;;;;;;;;;5073096;28;20039;-61
2021/07/11 05:47:52;;;;;;;4.97;3.65;;;;;;;;;;5073177;28;20024;-61
2021/07/11 05:50:18;;;;;;;5.22;4.00;;;;;;;;;;5073157;28;20047;-61
2021/07/11 05:52:44;;;;;;;5.72;3.72;;;;;;;;;;5073096;28;20021;-61
2021/07/11 05:55:11;;;;;;;4.30;3.25;;;;;;;;;;5072982;28;20077;-61
2021/07/11 05:57:37;;;;;;;4.00;3.13;;;;;;;;;;5054886;28;20631;-61
2021/07/11 06:00:05;;;;;;;5.55;3.83;;;;;;;;;;5073008;28;20024;-62
2021/07/11 06:02:31;;;;;;;5.03;3.85;;;;;;;;;;5072931;28;20031;-61
2021/07/11 06:04:57;;;;;;;4.20;3.20;;;;;;;;;;5072982;28;20051;-61
2021/07/11 06:07:23;;;;;;;4.75;3.60;;;;;;;;;;5072991;28;20390;-61
2021/07/11 06:09:49;;;;;;;4.28;3.30;;;;;;;;;;5073062;28;20024;-61
2021/07/11 06:12:18;;;;;;;4.93;3.95;;;;;;;;;;5072507;28;20031;-61
2021/07/11 06:14:45;;;;;;;5.25;3.30;;;;;;;;;;5072409;28;20028;-62
2021/07/11 06:17:11;;;;;;;5.40;3.58;;;;;;;;;;5072590;28;20051;-61
2021/07/11 06:19:37;;;;;;;6.38;3.47;;;;;;;;;;5067080;28;20028;-61
2021/07/11 06:22:03;;;;;;;5.00;3.58;;;;;;;;;;5052651;28;20033;-62
2021/07/11 06:24:29;;;;;;;6.38;3.78;;;;;;;;;;5052442;28;20123;-61
2021/07/11 06:26:55;;;;;;;5.45;3.22;;;;;;;;;;5052321;28;20028;-61
2021/07/11 06:29:21;;;;;;;4.38;3.47;;;;;;;;;;5058313;28;20033;-61
2021/07/11 06:31:47;;;;;;;5.15;3.28;;;;;;;;;;5072475;28;20038;-63
2021/07/11 06:34:13;;;;;;;4.45;3.35;;;;;;;;;;5072516;28;20044;-62
2021/07/11 06:36:39;;;;;;;4.32;3.50;;;;;;;;;;5064240;28;20063;-63
2021/07/11 06:39:07;;;;;;;4.53;3.30;;;;;;;;;;5052336;28;20036;-61
2021/07/11 06:41:33;;;;;;;4.57;3.28;;;;;;;;;;5052137;28;20036;-61
2021/07/11 06:43:59;;;;;;;6.43;3.97;;;;;;;;;;5052417;28;20025;-61
2021/07/11 06:46:25;;;;;;;3.35;2.85;;;;;;;;;;5058480;28;20028;-61
2021/07/11 06:48:51;;;;;;;6.50;3.65;;;;;;;;;;5072601;28;20024;-61
2021/07/11 06:51:17;;;;;;;5.40;3.60;;;;;;;;;;5072281;28;20032;-61
2021/07/11 06:53:43;;;;;;;4.32;3.63;;;;;;;;;;5072305;28;20023;-61
2021/07/11 06:56:09;;;;;;;3.85;3.25;;;;;;;;;;5072334;28;20066;-61
2021/07/11 06:58:36;;;;;;;4.45;3.25;;;;;;;;;;5072253;28;20105;-61
2021/07/11 07:01:02;;;;;;;4.32;3.10;;;;;;;;;;5072185;28;20028;-64
2021/07/11 07:03:28;;;;;;;4.03;3.10;;;;;;;;;;5072063;28;20086;-61
2021/07/11 07:05:54;;;;;;;4.72;3.13;;;;;;;;;;5072136;28;20025;-61
2021/07/11 07:08:20;;;;;;;4.97;3.25;;;;;;;;;;5072165;28;20024;-61
2021/07/11 07:10:46;;;;;;;4.80;3.20;;;;;;;;;;5071992;28;20021;-61
2021/07/11 07:13:12;;;;;;;4.32;3.30;;;;;;;;;;5054145;28;20021;-61
2021/07/11 07:15:38;;;;;;;4.53;2.92;;;;;;;;;;5072017;28;20523;-61
2021/07/11 07:18:06;;;;;;;4.15;3.33;;;;;;;;;;5072082;28;20031;-62
2021/07/11 07:20:32;;;;;;;6.28;3.95;;;;;;;;;;5071286;28;20043;-61
2021/07/11 07:22:59;;;;;;;3.97;2.90;;;;;;;;;;5072034;28;20056;-62
2021/07/11 07:25:25;;;;;;;3.72;3.05;;;;;;;;;;5072595;28;20060;-61
2021/07/11 07:27:51;;;;;;;4.32;3.15;;;;;;;;;;5075899;28;20532;-61
2021/07/11 07:30:20;;;;;;;5.07;2.97;;;;;;;;;;5075846;28;20067;-61
2021/07/11 07:32:50;;;;;;;4.93;3.13;;;;;;;;;;5075811;28;20525;-61
2021/07/11 07:35:20;;;;;;;4.78;3.10;;;;;;;;;;5061650;28;20036;-61
2021/07/11 07:37:47;;;;;;;5.30;3.10;;;;;;;;;;5064752;28;20028;-62
2021/07/11 07:40:14;;;;;;;3.70;2.90;;;;;;;;;;5075666;28;20534;-61
2021/07/11 07:42:40;;;;;;;4.60;3.40;;;;;;;;;;5075552;28;20063;-62
2021/07/11 07:45:06;;;;;;;4.35;2.83;;;;;;;;;;5075524;28;20036;-61
2021/07/11 07:47:33;;;;;;;4.93;3.20;;;;;;;;;;5075443;28;20020;-61
2021/07/11 07:49:59;;;;;;;4.85;3.15;;;;;;;;;;5075331;28;20101;-61
2021/07/11 07:52:25;;;;;;;3.22;2.92;;;;;;;;;;5075402;28;20467;-61
2021/07/11 07:54:51;;;;;;;5.65;3.10;;;;;;;;;;5075362;28;20082;-61
2021/07/11 07:57:17;;;;;;;4.40;3.17;;;;;;;;;;5075309;28;20029;-61
2021/07/11 07:59:43;;;;;;;5.68;3.20;;;;;;;;;;5075337;28;20032;-61
2021/07/11 08:02:09;;;;;;;3.20;2.90;;;;;;;;;;5075207;28;20103;-61
2021/07/11 08:04:35;;;;;;;3.78;3.10;;;;;;;;;;5075164;28;20581;-61
2021/07/11 08:07:01;;;;;;;3.58;3.10;;;;;;;;;;5075063;28;20123;-61
2021/07/11 08:09:27;;;;;;;4.65;3.28;;;;;;;;;;5075121;28;20111;-61
2021/07/11 08:11:53;;;;;;;3.83;2.92;;;;;;;;;;5074914;28;20027;-62
2021/07/11 08:14:19;;;;;;;5.40;3.22;;;;;;;;;;5074836;28;20020;-61
2021/07/11 08:16:46;;;;;;;4.63;3.30;;;;;;;;;;5075081;28;20073;-61
2021/07/11 08:19:12;;;;;;;3.47;3.15;;;;;;;;;;5071822;28;20034;-62
2021/07/11 08:21:38;;;;;;;5.18;3.10;;;;;;;;;;5054856;28;20057;-61
2021/07/11 08:24:04;;;;;;;4.38;3.10;;;;;;;;;;5073087;28;20036;-60
2021/07/11 08:26:31;;;;;;;3.83;2.90;;;;;;;;;;5094910;28;20138;-61
2021/07/11 08:28:58;;;;;;;4.50;3.03;;;;;;;;;;5083692;28;20025;-62
2021/07/11 08:31:24;;;;;;;3.80;3.03;;;;;;;;;;5074790;28;20040;-61
2021/07/11 08:33:50;;;;;;;3.72;3.00;;;;;;;;;;5074075;28;20383;-61
2021/07/11 08:36:16;;;;;;;3.65;3.10;;;;;;;;;;5082255;28;20051;-61
2021/07/11 08:38:42;;;;;;;3.67;2.85;;;;;;;;;;5074375;28;20023;-61
2021/07/11 08:41:09;;;;;;;4.10;3.72;;;;;;;;;;5074349;28;20056;-60
2021/07/11 08:43:38;;;;;;;5.13;3.20;;;;;;;;;;5073990;28;20028;-61
2021/07/11 08:46:04;;;;;;;3.30;2.67;;;;;;;;;;5073550;28;20075;-61
2021/07/11 08:48:30;;;;;;;3.83;2.83;;;;;;;;;;5073331;28;20024;-61
2021/07/11 08:51:01;;;;;;;4.32;3.10;;;;;;;;;;5073344;28;20013;-61
2021/07/11 08:53:27;;;;;;;3.75;2.90;;;;;;;;;;5073688;28;20025;-62
2021/07/11 08:55:53;;;;;;;4.78;3.10;;;;;;;;;;5073759;28;20059;-61
2021/07/11 08:58:19;;;;;;;4.38;2.83;;;;;;;;;;5073630;28;20115;-62
2021/07/11 09:00:47;;;;;;;3.20;2.90;;;;;;;;;;5073515;28;20103;-62
2021/07/11 09:03:14;;;;;;;5.22;3.05;;;;;;;;;;5072921;28;20020;-61
2021/07/11 09:05:40;;;;;;;3.97;3.05;;;;;;;;;;5073137;28;20028;-62
2021/07/11 09:08:08;;;;;;;4.50;2.58;;;;;;;;;;5073829;28;20024;-62
2021/07/11 09:10:40;;;;;;;4.15;2.45;;;;;;;;;;5073855;28;20021;-61
2021/07/11 09:13:13;;;;;;;4.03;2.95;;;;;;;;;;5073819;28;20024;-61
2021/07/11 09:15:41;;;;;;;2.67;2.42;;;;;;;;;;5073568;28;20031;-62
2021/07/11 09:18:07;;;;;;;3.78;2.45;;;;;;;;;;5073889;28;20016;-62
2021/07/11 09:20:33;;;;;;;3.17;2.70;;;;;;;;;;5059867;28;20533;-61
2021/07/11 09:23:01;;;;;;;3.88;2.58;;;;;;;;;;5053688;28;20044;-62
2021/07/11 09:25:27;;;;;;;2.65;2.38;;;;;;;;;;5053555;28;20248;-61
2021/07/11 09:27:54;;;;;;;3.30;2.60;;;;;;;;;;5053511;28;20039;-61
2021/07/11 09:30:20;;;;;;;2.95;2.28;;;;;;;;;;5053467;28;20058;-61
2021/07/11 09:32:49;;;;;;;2.65;2.45;;;;;;;;;;5053567;28;20029;-62
2021/07/11 09:35:17;;;;;;;3.55;2.53;;;;;;;;;;5053753;28;20021;-62
2021/07/11 09:37:44;;;;;;;3.47;2.65;;;;;;;;;;5070617;28;20434;-61
2021/07/11 09:40:11;;;;;;;3.10;2.70;;;;;;;;;;5073442;28;20027;-61
2021/07/11 09:42:38;;;;;;;4.72;2.72;;;;;;;;;;5073380;28;20441;-62
2021/07/11 09:45:06;;;;;;;3.50;2.97;;;;;;;;;;5073295;28;20025;-62
2021/07/11 09:47:33;;;;;;;3.17;2.75;;;;;;;;;;5073039;28;20100;-61
2021/07/11 09:50:10;;;;;;;3.75;2.80;;;;;;;;;;5072915;28;20088;-61
2021/07/11 09:52:37;;;;;;;3.88;2.90;;;;;;;;;;5073526;28;20048;-63
2021/07/11 09:55:03;;;;;;;3.40;2.85;;;;;;;;;;5072911;28;20463;-62
2021/07/11 09:57:35;;;;;;;3.50;2.83;;;;;;;;;;5072902;28;20463;-62
2021/07/11 10:00:01;;;;;;;4.32;3.33;;;;;;;;;;5072154;28;20044;-62
2021/07/11 10:02:28;;;;;;;6.25;3.95;;;;;;;;;;5072074;28;20032;-63
2021/07/11 10:04:54;;;;;;;5.10;3.60;;;;;;;;;;5072182;28;20020;-62
2021/07/11 10:07:20;;;;;;;5.47;3.25;;;;;;;;;;5072574;28;20032;-62
2021/07/11 10:09:46;;;;;;;4.97;3.50;;;;;;;;;;5072015;28;20016;-63
2021/07/11 10:12:12;;;;;;;4.70;3.30;;;;;;;;;;5072479;28;20539;-62
2021/07/11 10:14:39;;;;;;;3.72;3.33;;;;;;;;;;5072382;28;20035;-62
2021/07/11 10:17:05;;;;;;;6.70;3.13;;;;;;;;;;5072240;28;20029;-62
2021/07/11 10:19:32;;;;;;;8.68;3.85;;;;;;;;;;5067000;28;20029;-62
2021/07/11 10:21:58;;;;;;;11.13;3.40;;;;;;;;;;5052811;28;20048;-62
2021/07/11 10:24:24;;;;;;;6.90;2.90;;;;;;;;;;5063788;28;20399;-62
2021/07/11 10:26:50;;;;;;;6.18;3.40;;;;;;;;;;5071530;28;20035;-61
2021/07/11 10:29:21;;;;;;;5.65;3.50;;;;;;;;;;5072027;28;20380;-62
2021/07/11 10:31:49;;;;;;;3.38;3.08;;;;;;;;;;5072365;28;20558;-62
2021/07/11 10:34:34;;;;;;;4.20;3.10;;;;;;;;;;5071953;28;20028;-62
2021/07/11 10:37:13;;;;;;;3.90;2.90;;;;;;;;;;5072186;28;20376;-63
2021/07/11 10:39:39;;;;;;;3.78;2.85;;;;;;;;;;5071841;28;20017;-63
2021/07/11 10:42:05;;;;;;;4.75;3.60;;;;;;;;;;5071709;28;20025;-62
2021/07/11 10:44:31;;;;;;;5.32;3.67;;;;;;;;;;5071440;28;20032;-62
2021/07/11 10:46:59;;;;;;;5.47;3.60;;;;;;;;;;5072045;28;20032;-62
2021/07/11 10:49:30;;;;;;;3.78;2.92;;;;;;;;;;5071703;28;20027;-62
2021/07/11 10:51:58;;;;;;;5.40;4.00;;;;;;;;;;5077026;28;20108;-62
2021/07/11 10:54:31;;;;;;;4.45;3.60;;;;;;;;;;5086571;28;20048;-62
2021/07/11 10:56:58;;;;;;;6.45;3.55;;;;;;;;;;5071306;28;20063;-62
2021/07/11 10:59:32;;;;;;;8.18;3.42;;;;;;;;;;5072719;28;20024;-62
2021/07/11 11:01:58;;;;;;;5.22;3.00;;;;;;;;;;5075517;28;20033;-62
2021/07/11 11:04:25;;;;;;;3.92;3.28;;;;;;;;;;5075819;28;20050;-62
2021/07/11 11:06:51;;;;;;;6.22;3.60;;;;;;;;;;5075342;28;20032;-62
2021/07/11 11:09:35;;;;;;;5.05;3.65;;;;;;;;;;5075858;28;20483;-62
2021/07/11 11:12:01;;;;;;;4.82;3.60;;;;;;;;;;5075510;28;20067;-62
2021/07/11 11:14:29;;;;;;;7.72;3.90;;;;;;;;;;5086088;28;20028;-62
2021/07/11 11:16:55;;;;;;;5.47;3.65;;;;;;;;;;5079712;28;20036;-62
2021/07/11 11:19:24;;;;;;;7.07;4.25;;;;;;;;;;5074451;28;20387;-62
2021/07/11 11:21:54;;;;;;;6.22;4.05;;;;;;;;;;5075414;28;20073;-62
2021/07/11 11:24:20;;;;;;;4.82;3.50;;;;;;;;;;5075349;28;20129;-63
2021/07/11 11:26:46;;;;;;;8.15;3.83;;;;;;;;;;5057183;28;20028;-64
2021/07/11 11:29:12;;;;;;;4.97;3.22;;;;;;;;;;5075711;28;20099;-63
2021/07/11 11:31:38;;;;;;;3.58;3.03;;;;;;;;;;5074685;28;20058;-62
2021/07/11 11:34:07;;;;;;;3.30;2.75;;;;;;;;;;5075575;28;20028;-63
2021/07/11 11:36:38;;;;;;;3.92;2.33;;;;;;;;;;5074496;28;20017;-63
2021/07/11 11:39:06;;;;;;;2.47;1.98;;;;;;;;;;5074901;28;20020;-61
2021/07/11 11:41:33;;;;;;;2.17;1.60;;;;;;;;;;5075018;28;20046;-62
2021/07/11 11:44:19;;;;;;;2.05;1.77;;;;;;;;;;5075316;28;20479;-62
2021/07/11 11:46:47;;;;;;;2.15;1.63;;;;;;;;;;5072664;28;20020;-63
2021/07/11 11:49:14;;;;;;;1.98;1.77;;;;;;;;;;5071448;28;20478;-62
2021/07/11 11:51:45;;;;;;;2.10;1.70;;;;;;;;;;5074815;28;20025;-62
2021/07/11 11:54:11;;;;;;;1.35;1.25;;;;;;;;;;5075478;28;20029;-63
2021/07/11 11:56:37;;;;;;;1.48;0.90;;;;;;;;;;5075370;28;20021;-62
2021/07/11 11:59:04;;;;;;;0.90;0.90;;;;;;;;;;5074180;28;20036;-61
2021/07/11 12:01:32;;;;;;;0.90;0.90;;;;;;;;;;5076148;28;20025;-61
2021/07/11 12:04:06;;;;;;;1.30;1.20;;;;;;;;;;5075029;28;20101;-62
2021/07/11 12:06:32;;;;;;;0.75;0.75;;;;;;;;;;5074970;28;20091;-62
2021/07/11 12:08:59;;;;;;;1.10;1.10;;;;;;;;;;5074754;28;20107;-62
2021/07/11 12:11:25;;;;;;;1.23;1.20;;;;;;;;;;5073947;28;20035;-62
2021/07/11 12:13:51;;;;;;;1.60;1.00;;;;;;;;;;5074936;28;20031;-62
2021/07/11 12:16:18;;;;;;;1.05;1.00;;;;;;;;;;5074060;28;20401;-62
2021/07/11 12:18:51;;;;;;;1.25;1.15;;;;;;;;;;5075069;28;20036;-62
2021/07/11 12:21:20;;;;;;;1.00;1.00;;;;;;;;;;5055200;28;20155;-63
2021/07/11 12:23:56;;;;;;;0.80;0.80;;;;;;;;;;5054902;28;20369;-63
2021/07/11 12:26:23;;;;;;;0.80;0.80;;;;;;;;;;5061198;28;20111;-62
2021/07/11 12:28:51;;;;;;;1.25;1.15;;;;;;;;;;5075055;28;20033;-63
2021/07/11 12:31:24;;;;;;;1.42;1.23;;;;;;;;;;5056086;28;20395;-63
2021/07/11 12:36:27;;;;;;;1.17;1.08;;;;;;;;;;5221453;22;20502;-67
2021/07/11 12:38:53;;;;;;;1.10;1.10;;;;;;;;;;5033017;28;20487;-68
2021/07/11 12:41:22;;;;;;;0.98;0.98;;;;;;;;;;5034313;28;20033;-67
2021/07/11 12:43:51;;;;;;;1.20;1.10;;;;;;;;;;5033890;28;20113;-67
2021/07/11 12:46:17;;;;;;;1.00;1.00;;;;;;;;;;5033965;28;20022;-70
2021/07/11 12:48:48;;;;;;;1.13;1.02;;;;;;;;;;5030295;28;20021;-69
2021/07/11 12:51:21;;;;;;;1.10;1.10;;;;;;;;;;5034795;28;20026;-68
2021/07/11 12:53:48;;;;;;;0.90;0.90;;;;;;;;;;5034599;28;20029;-67
2021/07/11 12:56:15;;;;;;;0.80;0.80;;;;;;;;;;5029017;28;20047;-67
2021/07/11 12:58:45;;;;;;;1.10;1.10;;;;;;;;;;5026348;28;20065;-69
2021/07/11 13:01:12;;;;;;;0.80;0.80;;;;;;;;;;5026421;28;20053;-69
2021/07/11 13:03:38;;;;;;;0.88;0.88;;;;;;;;;;5026089;28;20399;-67
2021/07/11 13:06:04;;;;;;;1.15;1.15;;;;;;;;;;5025825;28;20467;-70
2021/07/11 13:08:30;;;;;;;0.60;0.60;;;;;;;;;;5025923;28;20037;-65
2021/07/11 13:10:56;;;;;;;1.00;0.90;;;;;;;;;;5008534;28;20116;-68
2021/07/11 13:13:23;;;;;;;0.73;0.73;;;;;;;;;;5027291;28;20061;-68
2021/07/11 13:15:49;;;;;;;0.70;0.70;;;;;;;;;;5028019;28;20025;-71
2021/07/11 13:18:16;;;;;;;0.95;0.95;;;;;;;;;;5013671;28;20087;-68
2021/07/11 13:20:43;;;;;;;0.80;0.80;;;;;;;;;;5033581;28;20033;-68
2021/07/11 13:23:10;;;;;;;1.35;0.90;;;;;;;;;;5031742;28;20091;-68
2021/07/11 13:25:36;;;;;;;0.90;0.90;;;;;;;;;;5033528;28;20029;-68
2021/07/11 13:28:03;;;;;;;0.93;0.93;;;;;;;;;;5033718;28;20479;-68
2021/07/11 13:30:32;;;;;;;1.00;1.00;;;;;;;;;;5033211;28;20479;-69
2021/07/11 13:32:58;;;;;;;0.82;0.82;;;;;;;;;;5033502;28;20112;-70
2021/07/11 13:35:25;;;;;;;1.10;0.90;;;;;;;;;;5027415;28;20053;-68
2021/07/11 13:37:52;;;;;;;0.93;0.93;;;;;;;;;;5032268;28;20025;-67
2021/07/11 13:40:19;;;;;;;0.98;0.98;;;;;;;;;;5033603;28;20029;-68
2021/07/11 13:42:45;;;;;;;1.30;1.10;;;;;;;;;;5032683;28;20029;-71
2021/07/11 13:45:12;;;;;;;0.80;0.80;;;;;;;;;;5015127;28;20037;-69
2021/07/11 13:47:39;;;;;;;1.25;0.90;;;;;;;;;;5032906;28;20045;-68
2021/07/11 13:50:06;;;;;;;1.00;1.00;;;;;;;;;;5032804;28;20033;-68
2021/07/11 13:52:32;;;;;;;1.00;1.00;;;;;;;;;;5032511;28;20499;-68
2021/07/11 13:54:59;;;;;;;1.10;1.10;;;;;;;;;;5015009;28;20026;-68
2021/07/11 13:57:25;;;;;;;1.27;1.17;;;;;;;;;;5032330;28;20492;-68
2021/07/11 13:59:51;;;;;;;1.00;1.00;;;;;;;;;;5032438;28;20040;-68
2021/07/11 14:02:20;;;;;;;1.02;1.02;;;;;;;;;;5032835;28;20025;-72
2021/07/11 14:04:46;;;;;;;1.17;1.10;;;;;;;;;;5031557;28;20026;-68
2021/07/11 14:07:12;;;;;;;1.05;1.02;;;;;;;;;;5032495;28;20511;-68
2021/07/11 14:09:39;;;;;;;0.93;0.93;;;;;;;;;;5032586;28;20029;-67
2021/07/11 14:12:05;;;;;;;1.50;1.13;;;;;;;;;;5032542;28;20415;-69
2021/07/11 14:14:31;;;;;;;1.35;1.27;;;;;;;;;;5033123;28;20022;-69
2021/07/11 14:16:57;;;;;;;0.90;0.90;;;;;;;;;;5032648;28;20104;-68
2021/07/11 14:19:23;;;;;;;1.75;1.20;;;;;;;;;;5032545;28;20128;-68
2021/07/11 14:21:49;;;;;;;2.40;1.40;;;;;;;;;;5032707;28;20026;-69
2021/07/11 14:24:15;;;;;;;1.20;1.20;;;;;;;;;;5032650;28;20033;-68
2021/07/11 14:26:41;;;;;;;2.15;1.45;;;;;;;;;;5032234;28;20033;-69
2021/07/11 14:29:08;;;;;;;1.50;1.40;;;;;;;;;;5032446;28;20029;-66
2021/07/11 14:31:34;;;;;;;1.35;1.25;;;;;;;;;;5032386;28;20168;-69
2021/07/11 14:34:00;;;;;;;2.15;2.05;;;;;;;;;;5032055;28;20487;-68
2021/07/11 14:36:26;;;;;;;1.40;1.30;;;;;;;;;;5018061;28;20522;-68
2021/07/11 14:38:52;;;;;;;1.40;1.30;;;;;;;;;;5012878;28;20037;-66
2021/07/11 14:41:18;;;;;;;1.70;1.60;;;;;;;;;;5012970;28;20033;-68
2021/07/11 14:43:44;;;;;;;2.05;1.65;;;;;;;;;;5012839;28;20028;-68
2021/07/11 14:46:10;;;;;;;3.10;1.75;;;;;;;;;;5012868;28;20049;-67